Time;durP1;ratioP1;P1;durP2;ratioP2;P2;SDS_P1;SDS_P2;PMS_P1;PMS_P2;Temp;Humidity;BMP_temperature;BMP_pressure;BME280_temperature;BME280_humidity;BME280_pressure;Samples;Min_cycle;Max_cycle;Signal;HPM_P1;HPM_P2
2023/04/07 00:01:35;;;;;;;10.27;3.93;;;;;;;-142.75;100.00;77326.25;5013561;28;20525;-64
2023/04/07 00:04:01;;;;;;;9.60;4.80;;;;;;;-142.75;100.00;77318.38;5013351;28;20114;-63
2023/04/07 00:06:27;;;;;;;11.30;4.35;;;;;;;-142.75;100.00;77318.38;5013243;28;20029;-63
2023/04/07 00:08:53;;;;;;;10.50;3.83;;;;;;;-142.75;100.00;77314.44;5013315;28;20448;-62
2023/04/07 00:11:18;;;;;;;19.02;4.53;;;;;;;-142.75;100.00;77326.25;5013386;28;20033;-65
2023/04/07 00:13:44;;;;;;;14.33;4.60;;;;;;;-142.75;100.00;77322.31;4995841;28;20029;-63
2023/04/07 00:16:09;;;;;;;10.77;4.28;;;;;;;-142.75;100.00;77314.44;5013031;28;20033;-62
2023/04/07 00:18:35;;;;;;;12.60;3.95;;;;;;;-142.75;100.00;77306.56;5013204;28;20026;-62
2023/04/07 00:21:00;;;;;;;11.25;3.72;;;;;;;-142.75;100.00;77308.53;4995720;28;20099;-63
2023/04/07 00:23:25;;;;;;;8.93;4.00;;;;;;;-142.75;100.00;77306.56;5013080;28;20498;-64
2023/04/07 00:25:51;;;;;;;8.02;3.55;;;;;;;-142.75;100.00;77310.50;5012778;28;20482;-66
2023/04/07 00:28:16;;;;;;;10.43;3.90;;;;;;;-142.75;100.00;77306.56;5013077;28;20025;-64
2023/04/07 00:30:42;;;;;;;8.03;3.00;;;;;;;-142.75;100.00;77310.50;5012972;28;20022;-63
2023/04/07 00:33:07;;;;;;;8.05;3.45;;;;;;;-142.75;100.00;77306.56;5012882;28;20029;-60
2023/04/07 00:35:32;;;;;;;8.27;3.23;;;;;;;-142.75;100.00;77310.50;5012767;28;20454;-64
2023/04/07 00:37:58;;;;;;;7.70;2.88;;;;;;;-142.75;100.00;77312.47;5012905;28;20405;-61
2023/04/07 00:40:23;;;;;;;5.75;3.05;;;;;;;-142.75;100.00;77302.63;5012844;28;20046;-65
2023/04/07 00:42:49;;;;;;;8.30;2.90;;;;;;;-142.75;100.00;77306.56;5012305;28;20040;-65
2023/04/07 00:45:14;;;;;;;8.10;3.00;;;;;;;-142.75;100.00;77318.38;5012196;28;20014;-65
2023/04/07 00:47:40;;;;;;;10.13;2.63;;;;;;;-142.75;100.00;77318.38;5012437;28;20030;-64
2023/04/07 00:50:06;;;;;;;10.70;2.60;;;;;;;-142.75;100.00;77326.25;5012695;28;20022;-62
2023/04/07 00:52:32;;;;;;;8.50;2.70;;;;;;;-142.75;100.00;77336.09;5012589;28;20026;-63
2023/04/07 00:54:58;;;;;;;7.10;2.60;;;;;;;-142.75;100.00;77338.06;5012347;28;20022;-63
2023/04/07 00:57:24;;;;;;;7.67;2.97;;;;;;;-142.75;100.00;77334.13;4994769;28;20033;-63
2023/04/07 00:59:53;;;;;;;9.98;2.08;;;;;;;-142.75;100.00;77330.19;5012456;28;20025;-63
2023/04/07 01:02:26;;;;;;;10.77;2.37;;;;;;;-142.75;100.00;77355.78;4994474;28;20026;-63
2023/04/07 01:04:57;;;;;;;8.90;2.47;;;;;;;-142.75;100.00;77355.78;5012267;28;20101;-64
2023/04/07 01:07:29;;;;;;;13.40;1.80;;;;;;;-142.75;100.00;77371.53;5011554;28;20030;-63
2023/04/07 01:10:00;;;;;;;4.95;1.55;;;;;;;-142.75;100.00;77357.75;5012351;28;20100;-62
2023/04/07 01:12:54;;;;;;;10.43;2.22;;;;;;;-142.75;100.00;77371.53;5012180;28;20055;-66
2023/04/07 01:15:23;;;;;;;11.32;1.85;;;;;;;-142.75;100.00;77373.50;5012135;28;20029;-61
2023/04/07 01:17:54;;;;;;;11.02;1.92;;;;;;;-142.75;100.00;77395.16;4994553;28;20028;-63
2023/04/07 01:20:22;;;;;;;9.57;1.70;;;;;;;-142.75;100.00;77405.00;5012217;28;20075;-63
2023/04/07 01:22:54;;;;;;;8.43;1.63;;;;;;;-142.75;100.00;77412.88;5012103;28;20030;-58
2023/04/07 01:25:34;;;;;;;8.20;1.77;;;;;;;-142.75;100.00;77428.63;5011860;28;20022;-61
2023/04/07 01:28:00;;;;;;;11.40;1.58;;;;;;;-142.75;100.00;77434.53;5012104;28;20613;-63
2023/04/07 01:30:29;;;;;;;4.25;1.67;;;;;;;-142.75;100.00;77460.13;5012058;28;20082;-62
2023/04/07 01:32:57;;;;;;;7.95;1.98;;;;;;;-142.75;100.00;77456.22;5011994;28;20033;-65
2023/04/07 01:35:25;;;;;;;10.27;1.97;;;;;;;-142.75;100.00;77475.91;5011750;28;20022;-65
2023/04/07 01:37:52;;;;;;;13.40;2.90;;;;;;;-142.75;100.00;77470.00;5012002;28;20408;-63
2023/04/07 01:40:18;;;;;;;13.07;1.90;;;;;;;-142.75;100.00;77483.78;4994305;28;20494;-65
2023/04/07 01:42:45;;;;;;;15.80;2.53;;;;;;;-142.75;100.00;77493.63;5011807;28;20049;-64
2023/04/07 01:45:11;;;;;;;10.53;2.47;;;;;;;-142.75;100.00;77495.59;5011676;28;20033;-63
2023/04/07 01:47:38;;;;;;;12.57;2.13;;;;;;;-142.75;100.00;77495.59;5011592;28;20389;-63
2023/04/07 01:50:08;;;;;;;12.90;3.03;;;;;;;-142.75;100.00;77491.66;5011748;28;20025;-65
2023/04/07 01:52:34;;;;;;;7.23;2.53;;;;;;;-142.75;100.00;77501.50;5011685;28;20030;-63
2023/04/07 01:55:00;;;;;;;15.83;3.20;;;;;;;-142.75;100.00;77491.66;5011377;28;20022;-63
2023/04/07 01:57:25;;;;;;;11.67;3.17;;;;;;;-142.75;100.00;77497.56;5011620;28;20036;-63
2023/04/07 01:59:52;;;;;;;11.07;2.40;;;;;;;-142.75;100.00;77485.75;4994007;28;20057;-64
2023/04/07 02:02:17;;;;;;;11.33;3.27;;;;;;;-142.75;100.00;77479.84;5011714;28;20021;-63
2023/04/07 02:04:54;;;;;;;11.03;2.57;;;;;;;-142.75;100.00;77477.88;5011619;28;20401;-63
2023/04/07 02:07:48;;;;;;;10.93;2.50;;;;;;;-142.75;100.00;77471.97;5011590;28;20030;-63
2023/04/07 02:10:16;;;;;;;13.50;3.22;;;;;;;-142.75;100.00;77487.72;5011492;28;20022;-63
2023/04/07 02:12:45;;;;;;;12.23;3.03;;;;;;;-142.75;100.00;77491.66;5011516;28;20115;-65
2023/04/07 02:15:11;;;;;;;14.63;3.30;;;;;;;-142.75;100.00;77493.63;5011313;28;20030;-63
2023/04/07 02:17:41;;;;;;;15.03;3.03;;;;;;;-142.75;100.00;77487.72;5011453;28;20103;-63
2023/04/07 02:20:08;;;;;;;10.50;2.93;;;;;;;-142.75;100.00;77477.88;5014089;28;20029;-63
2023/04/07 02:22:34;;;;;;;10.30;2.80;;;;;;;-142.75;100.00;77481.81;5015259;28;20057;-64
2023/04/07 02:25:00;;;;;;;12.53;3.17;;;;;;;-142.75;100.00;77483.78;5015240;28;20112;-62
2023/04/07 02:27:25;;;;;;;12.47;3.13;;;;;;;-142.75;100.00;77470.00;5015273;28;20081;-63
2023/04/07 02:29:50;;;;;;;15.10;3.37;;;;;;;-142.75;100.00;77468.03;5015322;28;20159;-65
2023/04/07 02:32:16;;;;;;;12.90;3.43;;;;;;;-142.75;100.00;77456.22;5014986;28;20026;-64
2023/04/07 02:34:42;;;;;;;13.23;3.07;;;;;;;-142.75;100.00;77454.25;5015197;28;20014;-64
2023/04/07 02:37:07;;;;;;;14.00;3.47;;;;;;;-142.75;100.00;77464.09;5014965;28;20505;-63
2023/04/07 02:39:32;;;;;;;14.33;3.13;;;;;;;-142.75;100.00;77462.13;5014967;28;20025;-63
2023/04/07 02:41:58;;;;;;;11.90;3.33;;;;;;;-142.75;100.00;77456.22;4996965;28;20026;-63
2023/04/07 02:44:23;;;;;;;9.97;3.20;;;;;;;-142.75;100.00;77460.13;5014882;28;20022;-65
2023/04/07 02:46:48;;;;;;;13.07;3.30;;;;;;;-142.75;100.00;77481.81;4997350;28;20408;-65
2023/04/07 02:49:13;;;;;;;8.20;3.10;;;;;;;-142.75;100.00;77466.03;5014927;28;20060;-64
2023/04/07 02:51:39;;;;;;;19.47;3.60;;;;;;;-142.75;100.00;77468.03;5014966;28;20053;-63
2023/04/07 02:54:04;;;;;;;12.97;3.10;;;;;;;-142.75;100.00;77468.03;5014853;28;20049;-63
2023/04/07 02:56:30;;;;;;;13.37;3.60;;;;;;;-142.75;100.00;77468.03;5014292;28;20190;-65
2023/04/07 02:58:55;;;;;;;9.83;3.20;;;;;;;-142.75;100.00;77479.84;5014822;28;20517;-62
2023/04/07 03:01:20;;;;;;;17.23;3.97;;;;;;;-142.75;100.00;77470.00;5014708;28;20481;-63
2023/04/07 03:03:46;;;;;;;8.87;3.47;;;;;;;-142.75;100.00;77471.97;5014487;28;20077;-65
2023/04/07 03:06:12;;;;;;;11.93;3.30;;;;;;;-142.75;100.00;77468.03;5013991;28;20030;-62
2023/04/07 03:08:37;;;;;;;12.35;3.00;;;;;;;-142.75;100.00;77468.03;5014341;28;20053;-63
2023/04/07 03:11:03;;;;;;;13.73;3.90;;;;;;;-142.75;100.00;77454.25;5014448;28;20073;-63
2023/04/07 03:13:29;;;;;;;8.40;2.97;;;;;;;-142.75;100.00;77452.25;5014415;28;20109;-60
2023/04/07 03:15:55;;;;;;;13.37;3.37;;;;;;;-142.75;100.00;77450.28;5014233;28;20481;-65
2023/04/07 03:18:21;;;;;;;11.03;3.70;;;;;;;-142.75;100.00;77444.38;5014331;28;20075;-65
2023/04/07 03:20:47;;;;;;;11.23;3.67;;;;;;;-142.75;100.00;77442.41;5014317;28;20097;-63
2023/04/07 03:23:13;;;;;;;12.83;4.00;;;;;;;-142.75;100.00;77446.34;5014148;28;20022;-63
2023/04/07 03:25:38;;;;;;;9.03;2.90;;;;;;;-142.75;100.00;77434.53;5013950;28;20036;-62
2023/04/07 03:28:04;;;;;;;17.33;4.20;;;;;;;-142.75;100.00;77424.69;5014150;28;20366;-64
2023/04/07 03:30:29;;;;;;;12.07;3.23;;;;;;;-142.75;100.00;77422.72;5013193;28;20033;-63
2023/04/07 03:32:54;;;;;;;12.23;3.65;;;;;;;-142.75;100.00;77422.72;5013931;28;20402;-63
2023/04/07 03:35:20;;;;;;;10.23;2.97;;;;;;;-142.75;100.00;77428.63;4996040;28;20026;-63
2023/04/07 03:37:45;;;;;;;19.93;3.47;;;;;;;-142.75;100.00;77422.72;5013833;28;20057;-61
2023/04/07 03:40:11;;;;;;;14.00;3.67;;;;;;;-142.75;100.00;77418.78;5013760;28;20029;-64
2023/04/07 03:42:36;;;;;;;9.90;3.45;;;;;;;-142.75;100.00;77414.84;5013610;28;20032;-65
2023/04/07 03:45:02;;;;;;;7.55;3.45;;;;;;;-142.75;100.00;77416.81;5013642;28;20021;-63
2023/04/07 03:47:27;;;;;;;13.55;3.38;;;;;;;-142.75;100.00;77401.06;4995959;28;20037;-60
2023/04/07 03:49:52;;;;;;;10.25;3.30;;;;;;;-142.75;100.00;77408.94;4996224;28;20394;-63
2023/04/07 03:52:17;;;;;;;10.98;3.40;;;;;;;-142.75;100.00;77406.97;5013480;28;20149;-63
2023/04/07 03:54:43;;;;;;;15.75;3.55;;;;;;;-142.75;100.00;77405.00;5013438;28;20029;-65
2023/04/07 03:57:08;;;;;;;12.32;3.58;;;;;;;-142.75;100.00;77412.88;5013412;28;20022;-64
2023/04/07 03:59:34;;;;;;;13.27;3.50;;;;;;;-142.75;100.00;77408.94;5013616;28;20053;-63
2023/04/07 04:02:00;;;;;;;14.65;3.47;;;;;;;-142.75;100.00;77420.75;5013413;28;20014;-65
2023/04/07 04:04:25;;;;;;;9.50;3.80;;;;;;;-142.75;100.00;77410.91;5013349;28;20512;-63
2023/04/07 04:06:50;;;;;;;10.40;3.30;;;;;;;-142.75;100.00;77410.91;5013240;28;20050;-63
2023/04/07 04:09:16;;;;;;;10.60;3.27;;;;;;;-142.75;100.00;77414.84;5013384;28;20025;-64
2023/04/07 04:11:41;;;;;;;8.93;3.38;;;;;;;-142.75;100.00;77406.97;5013379;28;20509;-64
2023/04/07 04:14:09;;;;;;;8.57;3.40;;;;;;;-142.75;100.00;77397.13;5013130;28;20478;-64
2023/04/07 04:16:35;;;;;;;14.27;3.17;;;;;;;-142.75;100.00;77405.00;5013110;28;20029;-65
2023/04/07 04:19:00;;;;;;;10.38;3.03;;;;;;;-142.75;100.00;77406.97;5013209;28;20112;-63
2023/04/07 04:21:26;;;;;;;8.10;3.10;;;;;;;-142.75;100.00;77397.13;4995429;28;20105;-62
2023/04/07 04:23:52;;;;;;;11.20;3.65;;;;;;;-142.75;100.00;77408.94;5013134;28;20092;-63
2023/04/07 04:26:17;;;;;;;11.73;2.90;;;;;;;-142.75;100.00;77416.81;5012834;28;20040;-63
2023/04/07 04:28:43;;;;;;;6.47;2.17;;;;;;;-142.75;100.00;77424.69;5013041;28;20474;-63
2023/04/07 04:31:08;;;;;;;11.00;2.53;;;;;;;-142.75;100.00;77403.03;5013057;28;20631;-63
2023/04/07 04:33:33;;;;;;;6.90;2.53;;;;;;;-142.75;100.00;77412.88;5012825;28;20032;-64
2023/04/07 04:35:59;;;;;;;6.35;1.75;;;;;;;-142.75;100.00;77428.63;5012703;28;20032;-64
2023/04/07 04:38:24;;;;;;;13.02;2.33;;;;;;;-142.75;100.00;77432.56;5012847;28;20029;-61
2023/04/07 04:40:49;;;;;;;7.28;1.90;;;;;;;-142.75;100.00;77422.72;5012834;28;20063;-66
2023/04/07 04:43:15;;;;;;;4.03;1.90;;;;;;;-142.75;100.00;77420.75;5012619;28;20022;-63
2023/04/07 04:45:40;;;;;;;2.65;1.33;;;;;;;-142.75;100.00;77428.63;5012575;28;20030;-65
2023/04/07 04:48:05;;;;;;;9.20;1.80;;;;;;;-142.75;100.00;77434.53;5012741;28;20033;-63
2023/04/07 04:50:31;;;;;;;5.47;2.03;;;;;;;-142.75;100.00;77422.72;5012581;28;20029;-64
2023/04/07 04:52:56;;;;;;;9.30;2.65;;;;;;;-142.75;100.00;77412.88;5012474;28;20108;-65
2023/04/07 04:55:21;;;;;;;5.88;1.88;;;;;;;-142.75;100.00;77405.00;5012712;28;20034;-63
2023/04/07 04:57:47;;;;;;;10.30;2.13;;;;;;;-142.75;100.00;77420.75;5012453;28;20465;-62
2023/04/07 05:00:12;;;;;;;7.73;2.57;;;;;;;-142.75;100.00;77408.94;4994888;28;20025;-63
2023/04/07 05:02:38;;;;;;;7.50;1.80;;;;;;;-142.75;100.00;77410.91;5012361;28;20109;-63
2023/04/07 05:05:03;;;;;;;10.32;2.40;;;;;;;-142.75;100.00;77418.78;5012183;28;20030;-59
2023/04/07 05:07:29;;;;;;;6.95;2.33;;;;;;;-142.75;100.00;77422.72;5012200;28;20088;-58
2023/04/07 05:09:54;;;;;;;7.50;1.88;;;;;;;-142.75;100.00;77440.44;5012271;28;20076;-63
2023/04/07 05:12:20;;;;;;;8.17;2.47;;;;;;;-142.75;100.00;77428.63;5012414;28;20026;-63
2023/04/07 05:14:45;;;;;;;7.53;1.73;;;;;;;-142.75;100.00;77428.63;5012037;28;20026;-64
2023/04/07 05:17:11;;;;;;;7.15;1.75;;;;;;;-142.75;100.00;77420.75;5011929;28;20423;-63
2023/04/07 05:19:36;;;;;;;5.68;1.45;;;;;;;-142.75;100.00;77436.50;4994254;28;20033;-63
2023/04/07 05:22:01;;;;;;;8.38;2.30;;;;;;;-142.75;100.00;77420.75;5011862;28;20436;-64
2023/04/07 05:24:28;;;;;;;5.43;2.08;;;;;;;-142.75;100.00;77422.72;5011965;28;20025;-63
2023/04/07 05:26:53;;;;;;;11.45;1.67;;;;;;;-142.75;100.00;77438.47;5011915;28;20026;-63
2023/04/07 05:29:19;;;;;;;6.30;2.05;;;;;;;-142.75;100.00;77432.56;5011956;28;20025;-61
2023/04/07 05:31:44;;;;;;;8.00;1.67;;;;;;;-142.75;100.00;77450.28;5011513;28;20036;-63
2023/04/07 05:34:09;;;;;;;6.60;1.40;;;;;;;-142.75;100.00;77448.34;5011656;28;20029;-63
2023/04/07 05:36:35;;;;;;;4.33;1.70;;;;;;;-142.75;100.00;77464.09;5011388;28;20033;-64
2023/04/07 05:39:00;;;;;;;4.75;1.50;;;;;;;-142.75;100.00;77473.94;5011620;28;20079;-64
2023/04/07 05:41:26;;;;;;;5.93;1.60;;;;;;;-142.75;100.00;77483.78;5011737;28;20037;-63
2023/04/07 05:43:51;;;;;;;8.93;1.97;;;;;;;-142.75;100.00;77479.84;5011504;28;20037;-63
2023/04/07 05:46:16;;;;;;;6.40;1.47;;;;;;;-142.75;100.00;77470.00;5011694;28;20034;-63
2023/04/07 05:48:42;;;;;;;8.43;1.30;;;;;;;-142.75;100.00;77473.94;5011949;28;20018;-64
2023/04/07 05:51:07;;;;;;;8.03;1.30;;;;;;;-142.75;100.00;77464.09;5011889;28;20100;-63
2023/04/07 05:53:32;;;;;;;6.68;1.42;;;;;;;-142.75;100.00;77487.72;5011582;28;20485;-63
2023/04/07 05:55:57;;;;;;;4.25;1.10;;;;;;;-142.75;100.00;77475.91;5015518;28;20108;-64
2023/04/07 05:58:23;;;;;;;8.88;1.50;;;;;;;-142.75;100.00;77481.81;5015869;28;20550;-63
2023/04/07 06:00:49;;;;;;;8.93;1.35;;;;;;;-142.75;100.00;77475.91;5015637;28;20068;-63
2023/04/07 06:03:14;;;;;;;6.07;1.20;;;;;;;-142.75;100.00;77483.78;5015269;28;20033;-63
2023/04/07 06:05:42;;;;;;;9.07;1.20;;;;;;;-142.75;100.00;77515.28;5015247;28;20045;-63
2023/04/07 06:08:10;;;;;;;8.57;1.63;;;;;;;-142.75;100.00;77503.47;4994482;28;20038;-59
2023/04/07 06:10:35;;;;;;;5.53;1.23;;;;;;;-142.75;100.00;77507.41;4995852;28;20026;-66
2023/04/07 06:13:01;;;;;;;8.40;1.40;;;;;;;-142.75;100.00;77503.47;4976303;28;20073;-66
2023/04/07 06:15:26;;;;;;;7.80;1.40;;;;;;;-142.75;100.00;77509.38;4988093;28;20027;-65
2023/04/07 06:17:51;;;;;;;6.82;0.98;;;;;;;-142.75;100.00;77513.31;4989671;28;20494;-65
2023/04/07 06:20:18;;;;;;;6.30;1.60;;;;;;;-142.75;100.00;77519.22;4995288;28;20053;-64
2023/04/07 06:22:44;;;;;;;3.58;1.17;;;;;;;-142.75;100.00;77511.34;4992249;28;20398;-66
2023/04/07 06:25:09;;;;;;;8.57;1.30;;;;;;;-142.75;100.00;77505.44;4984726;28;20022;-66
2023/04/07 06:27:35;;;;;;;4.32;1.08;;;;;;;-142.75;100.00;77497.56;4989467;28;20030;-66
2023/04/07 06:30:00;;;;;;;4.53;1.10;;;;;;;-142.75;100.00;77509.38;4989729;28;20034;-66
2023/04/07 06:32:25;;;;;;;3.28;0.93;;;;;;;-142.75;100.00;77503.47;4994486;28;20022;-66
2023/04/07 06:34:51;;;;;;;7.03;1.00;;;;;;;-142.75;100.00;77501.50;4985447;28;20023;-65
2023/04/07 06:37:17;;;;;;;4.05;0.85;;;;;;;-142.75;100.00;77495.59;4985431;28;20023;-66
2023/04/07 06:39:42;;;;;;;9.65;1.20;;;;;;;-142.75;100.00;77499.53;4989999;28;20053;-66
2023/04/07 06:42:07;;;;;;;4.03;1.23;;;;;;;-142.75;100.00;77503.47;4990956;28;20034;-66
2023/04/07 06:44:33;;;;;;;8.23;1.27;;;;;;;-142.75;100.00;77499.53;4990889;28;20449;-66
2023/04/07 06:46:58;;;;;;;5.53;1.85;;;;;;;-142.75;100.00;77481.81;4975708;28;20126;-66
2023/04/07 06:49:23;;;;;;;2.35;0.80;;;;;;;-142.75;100.00;77479.84;4994944;28;20053;-66
2023/04/07 06:51:49;;;;;;;7.28;1.23;;;;;;;-142.75;100.00;77466.03;4990338;28;20076;-66
2023/04/07 06:54:15;;;;;;;5.90;1.00;;;;;;;-142.75;100.00;77483.78;4984370;28;20510;-65
2023/04/07 06:56:41;;;;;;;8.45;1.15;;;;;;;-142.75;100.00;77479.84;4989270;28;20026;-66
2023/04/07 06:59:06;;;;;;;8.48;1.00;;;;;;;-142.75;100.00;77477.88;4994666;28;20030;-63
2023/04/07 07:01:32;;;;;;;10.13;1.67;;;;;;;-142.75;100.00;77491.66;5003567;28;20029;-66
2023/04/07 07:03:59;;;;;;;9.15;1.67;;;;;;;-142.75;100.00;77491.66;4995913;28;20026;-66
2023/04/07 07:06:25;;;;;;;8.55;0.82;;;;;;;-142.75;100.00;77495.59;4975831;28;20030;-66
2023/04/07 07:08:51;;;;;;;3.63;1.15;;;;;;;-142.75;100.00;77507.41;4977581;28;20033;-66
2023/04/07 07:11:16;;;;;;;6.82;1.20;;;;;;;-142.75;100.00;77517.25;4993586;28;20068;-67
2023/04/07 07:13:41;;;;;;;11.13;1.08;;;;;;;-142.75;100.00;77511.34;4977437;28;20029;-66
2023/04/07 07:16:07;;;;;;;7.63;1.33;;;;;;;-142.75;100.00;77509.38;4999457;28;20045;-65
2023/04/07 07:18:32;;;;;;;8.98;1.13;;;;;;;-142.75;100.00;77531.03;5005077;28;20021;-65
2023/04/07 07:20:57;;;;;;;6.40;1.10;;;;;;;-142.75;100.00;77527.09;5003380;28;20038;-66
2023/04/07 07:23:23;;;;;;;7.63;1.40;;;;;;;-142.75;100.00;77548.75;5014120;28;20030;-66
2023/04/07 07:25:48;;;;;;;4.13;1.00;;;;;;;-142.75;100.00;77552.69;5012717;28;20030;-67
2023/04/07 07:28:13;;;;;;;5.70;1.17;;;;;;;-142.75;100.00;77558.59;5003797;28;20045;-64
2023/04/07 07:30:40;;;;;;;5.07;1.15;;;;;;;-142.75;100.00;77562.53;5004846;28;20026;-63
2023/04/07 07:33:05;;;;;;;8.30;1.42;;;;;;;-142.75;100.00;77562.53;5002210;28;20113;-63
2023/04/07 07:35:31;;;;;;;5.70;1.27;;;;;;;-142.75;100.00;77574.34;5002995;28;20468;-63
2023/04/07 07:37:57;;;;;;;3.25;0.82;;;;;;;-142.75;100.00;77590.09;4986004;28;20401;-64
2023/04/07 07:40:22;;;;;;;9.63;1.23;;;;;;;-142.75;100.00;77578.28;4999189;28;20104;-64
2023/04/07 07:42:47;;;;;;;3.80;0.98;;;;;;;-142.75;100.00;77580.25;5000681;28;20114;-64
2023/04/07 07:45:13;;;;;;;7.07;1.10;;;;;;;-142.75;100.00;77590.09;4986480;28;20022;-64
2023/04/07 07:47:39;;;;;;;6.63;1.10;;;;;;;-142.75;100.00;77578.28;5003613;28;20394;-63
2023/04/07 07:50:05;;;;;;;6.90;0.90;;;;;;;-142.75;100.00;77572.38;5002233;28;20065;-63
2023/04/07 07:52:31;;;;;;;5.20;1.10;;;;;;;-142.75;100.00;77572.38;5002582;28;20057;-65
2023/04/07 07:54:56;;;;;;;8.10;1.00;;;;;;;-142.75;100.00;77560.56;4985969;28;20486;-63
2023/04/07 07:57:21;;;;;;;6.53;1.33;;;;;;;-142.75;100.00;77572.38;5004474;28;20041;-64
2023/04/07 07:59:47;;;;;;;8.27;1.80;;;;;;;-142.75;100.00;77586.16;5007006;28;20054;-64
2023/04/07 08:02:12;;;;;;;6.13;1.30;;;;;;;-142.75;100.00;77570.41;4984337;28;20030;-64
2023/04/07 08:04:38;;;;;;;10.07;1.38;;;;;;;-142.75;100.00;77588.13;4999164;28;20030;-63
2023/04/07 08:07:03;;;;;;;10.02;1.92;;;;;;;-142.75;100.00;77596.00;5008797;28;20030;-64
2023/04/07 08:09:29;;;;;;;8.83;1.80;;;;;;;-142.75;100.00;77601.91;5005531;28;20061;-63
2023/04/07 08:11:54;;;;;;;6.90;1.40;;;;;;;-142.75;100.00;77596.00;4993680;28;20026;-63
2023/04/07 08:14:20;;;;;;;16.50;1.55;;;;;;;-142.75;100.00;77603.88;4993707;28;20284;-63
2023/04/07 08:16:46;;;;;;;9.52;1.25;;;;;;;-142.75;100.00;77601.91;4975718;28;20426;-63
2023/04/07 08:19:12;;;;;;;5.80;0.88;;;;;;;-142.75;100.00;77605.84;4996900;28;20086;-65
2023/04/07 08:21:38;;;;;;;6.07;0.93;;;;;;;-142.75;100.00;77597.97;4993679;28;20052;-64
2023/04/07 08:24:04;;;;;;;8.15;1.10;;;;;;;-142.75;100.00;77617.66;4993199;28;20105;-64
2023/04/07 08:26:30;;;;;;;5.20;0.80;;;;;;;-142.75;100.00;77619.63;4992961;28;20057;-63
2023/04/07 08:28:55;;;;;;;3.55;0.70;;;;;;;-142.75;100.00;77621.59;4993519;28;20505;-63
2023/04/07 08:31:20;;;;;;;7.47;0.88;;;;;;;-142.75;100.00;77623.56;4993411;28;20058;-64
2023/04/07 08:33:46;;;;;;;4.18;0.98;;;;;;;-142.75;100.00;77627.50;4975849;28;20037;-62
2023/04/07 08:36:11;;;;;;;7.13;1.58;;;;;;;-142.75;100.00;77617.66;4993192;28;20528;-64
2023/04/07 08:38:37;;;;;;;8.60;1.05;;;;;;;-142.75;100.00;77605.84;4993209;28;20109;-63
2023/04/07 08:41:07;;;;;;;9.98;0.73;;;;;;;-142.75;100.00;77586.16;4993351;28;20288;-63
2023/04/07 08:43:35;;;;;;;4.45;0.85;;;;;;;-142.75;100.00;77611.75;4993191;28;20034;-63
2023/04/07 08:46:01;;;;;;;6.45;0.88;;;;;;;-142.75;100.00;77592.06;5000894;28;20042;-65
2023/04/07 08:48:32;;;;;;;5.03;0.77;;;;;;;-142.75;100.00;77586.16;5012241;28;20045;-64
2023/04/07 08:51:03;;;;;;;5.00;1.00;;;;;;;-142.75;100.00;77609.78;5012766;28;20076;-65
2023/04/07 08:53:49;;;;;;;5.97;0.65;;;;;;;-142.75;100.00;77601.91;5012714;28;20072;-64
2023/04/07 08:56:16;;;;;;;9.80;1.03;;;;;;;-142.75;100.00;77605.84;4994655;28;20034;-65
2023/04/07 08:58:42;;;;;;;5.43;0.90;;;;;;;-142.75;100.00;77601.91;5012532;28;20041;-64
2023/04/07 09:01:08;;;;;;;7.22;0.88;;;;;;;-142.75;100.00;77596.00;5011297;28;20436;-65
2023/04/07 09:03:33;;;;;;;9.50;1.75;;;;;;;-142.75;100.00;77611.75;4994655;28;20028;-65
2023/04/07 09:06:00;;;;;;;6.45;1.30;;;;;;;-142.75;100.00;77607.81;4994549;28;20104;-65
2023/04/07 09:08:26;;;;;;;2.95;0.70;;;;;;;-142.75;100.00;77605.84;5012470;28;20034;-64
2023/04/07 09:10:52;;;;;;;8.10;0.90;;;;;;;-142.75;100.00;77607.81;5012318;28;20036;-65
2023/04/07 09:13:17;;;;;;;5.35;1.02;;;;;;;-142.75;100.00;77603.88;4994606;28;20026;-64
2023/04/07 09:15:43;;;;;;;6.32;1.15;;;;;;;-142.75;100.00;77603.88;5012034;28;20025;-65
2023/04/07 09:18:09;;;;;;;7.75;1.23;;;;;;;-142.75;100.00;77621.59;4994528;28;20060;-65
2023/04/07 09:20:53;;;;;;;4.93;0.90;;;;;;;-142.75;100.00;77617.66;5012187;28;20058;-65
2023/04/07 09:23:30;;;;;;;6.90;1.35;;;;;;;-142.75;100.00;77613.72;5010708;28;20026;-65
2023/04/07 09:26:00;;;;;;;8.63;1.42;;;;;;;-142.75;100.00;77601.91;5011947;28;20033;-65
2023/04/07 09:28:54;;;;;;;5.63;1.33;;;;;;;-142.75;100.00;77617.66;4993952;28;20112;-65
2023/04/07 09:31:22;;;;;;;4.40;1.08;;;;;;;-142.75;100.00;77615.69;4994662;28;20030;-65
2023/04/07 09:33:48;;;;;;;9.70;1.20;;;;;;;-142.75;100.00;77574.34;5011982;28;20422;-64
2023/04/07 09:36:14;;;;;;;7.13;1.20;;;;;;;-142.75;100.00;77584.19;5011811;28;20025;-65
2023/04/07 09:38:42;;;;;;;8.55;1.00;;;;;;;-142.75;100.00;77558.59;5012060;28;20637;-65
2023/04/07 09:41:13;;;;;;;5.45;1.13;;;;;;;-142.75;100.00;77538.91;5012000;28;20118;-64
2023/04/07 09:43:40;;;;;;;5.05;0.88;;;;;;;-142.75;100.00;77531.03;4994236;28;20030;-65
2023/04/07 09:46:13;;;;;;;5.82;0.85;;;;;;;-142.75;100.00;77542.84;5011637;28;20025;-65
2023/04/07 09:48:40;;;;;;;4.82;0.80;;;;;;;-142.75;100.00;77552.69;5011810;28;20041;-65
2023/04/07 09:51:07;;;;;;;9.23;0.90;;;;;;;-142.75;100.00;77562.53;4994465;28;20401;-65
2023/04/07 09:53:50;;;;;;;6.22;1.08;;;;;;;-142.75;100.00;77590.09;4994157;28;20116;-65
2023/04/07 09:56:17;;;;;;;7.97;1.25;;;;;;;-142.75;100.00;77594.03;5011471;28;20045;-64
2023/04/07 09:58:45;;;;;;;5.90;1.17;;;;;;;-142.75;100.00;77605.84;5011857;28;20488;-64
2023/04/07 10:01:12;;;;;;;9.95;1.63;;;;;;;-142.75;100.00;77605.84;5011743;28;20091;-64
2023/04/07 10:03:38;;;;;;;5.55;0.90;;;;;;;-142.75;100.00;77580.25;5011735;28;20550;-64
2023/04/07 10:06:05;;;;;;;9.27;1.27;;;;;;;-142.75;100.00;77588.13;5011397;28;20041;-65
2023/04/07 10:08:34;;;;;;;4.80;1.10;;;;;;;-142.75;100.00;77568.44;5011711;28;20057;-64
2023/04/07 10:11:04;;;;;;;9.73;1.30;;;;;;;-142.75;100.00;77564.50;5011839;28;20118;-64
2023/04/07 10:13:31;;;;;;;10.13;1.23;;;;;;;-142.75;100.00;77578.28;5011549;28;20519;-65
2023/04/07 10:16:02;;;;;;;11.13;1.60;;;;;;;-142.75;100.00;77568.44;5011425;28;20084;-65
2023/04/07 10:18:32;;;;;;;2.20;0.90;;;;;;;-142.75;100.00;77578.28;5011712;28;20080;-65
2023/04/07 10:21:09;;;;;;;6.70;1.17;;;;;;;-142.75;100.00;77570.41;4994130;28;20400;-65
2023/04/07 10:23:49;;;;;;;7.78;1.52;;;;;;;-142.75;100.00;77558.59;5011617;28;20609;-64
2023/04/07 10:26:18;;;;;;;3.63;0.85;;;;;;;-142.75;100.00;77590.09;5011316;28;20041;-65
2023/04/07 10:28:48;;;;;;;4.72;0.77;;;;;;;-142.75;100.00;77597.97;4993904;28;20014;-65
2023/04/07 10:31:13;;;;;;;4.68;0.90;;;;;;;-142.75;100.00;77603.88;4993896;28;20028;-65
2023/04/07 10:33:48;;;;;;;8.05;1.20;;;;;;;-142.75;100.00;77617.66;5011366;28;20026;-64
2023/04/07 10:36:14;;;;;;;6.63;1.10;;;;;;;-142.75;100.00;77633.41;5011230;28;20022;-64
2023/04/07 10:38:41;;;;;;;6.78;1.17;;;;;;;-142.75;100.00;77637.34;4993793;28;20084;-65
2023/04/07 10:41:45;;;;;;;7.30;1.10;;;;;;;-142.75;100.00;77633.41;5013932;28;20072;-64
2023/04/07 10:44:40;;;;;;;8.20;1.35;;;;;;;-142.75;100.00;77607.81;4916217;29;20076;-64
2023/04/07 10:47:06;;;;;;;6.50;1.05;;;;;;;-142.75;100.00;77607.81;4916480;29;20032;-63
2023/04/07 10:49:33;;;;;;;9.45;1.50;;;;;;;-142.75;100.00;77586.16;4982461;28;20125;-64
2023/04/07 10:52:10;;;;;;;9.25;1.33;;;;;;;-142.75;100.00;77586.16;4997105;28;20033;-65
2023/04/07 10:54:37;;;;;;;8.50;1.30;;;;;;;-142.75;100.00;77607.81;5014796;28;20022;-65
2023/04/07 10:57:02;;;;;;;8.55;1.33;;;;;;;-142.75;100.00;77617.66;5015236;28;20022;-64
2023/04/07 10:59:33;;;;;;;7.00;1.00;;;;;;;-142.75;100.00;77615.69;5014631;28;20041;-65
2023/04/07 11:02:13;;;;;;;8.55;1.40;;;;;;;-142.75;100.00;77613.72;5014693;28;20014;-65
2023/04/07 11:04:43;;;;;;;12.75;1.50;;;;;;;-142.75;100.00;77603.88;5014551;28;20506;-65
2023/04/07 11:07:09;;;;;;;13.88;1.40;;;;;;;-142.75;100.00;77613.72;5014409;28;20022;-65